| time (UTC) | temp F | wind direction | speed knots | gust knots | rain 1hr in | rain 24hr in | rain mn in | humidity % | barometer mb |
| 20260510234237 | 45 | 244 | 0.0 | 7.8 | 0.00 | 0.00 | 0.00 | 78 | 1011.9 |
| 20260510232736 | 46 | 269 | 0.9 | 7.0 | 0.00 | 0.00 | 0.00 | 77 | 1012.2 |
| 20260510231236 | 46 | 321 | 0.9 | 7.0 | 0.00 | 0.00 | 0.00 | 77 | 1012.2 |
| 20260510225735 | 46 | 276 | 0.9 | 5.2 | 0.00 | 0.00 | 0.00 | 75 | 1012.6 |
| 20260510224236 | 46 | 288 | 0.9 | 5.2 | 0.00 | 0.00 | 0.00 | 72 | 1012.7 |
| 20260510222736 | 46 | 267 | 0.0 | 5.2 | 0.00 | 0.00 | 0.00 | 69 | 1012.9 |
| 20260510221236 | 46 | 273 | 0.9 | 7.0 | 0.00 | 0.00 | 0.00 | 67 | 1013.0 |
| 20260510215736 | 47 | 274 | 0.0 | 6.1 | 0.00 | 0.00 | 0.00 | 65 | 1013.3 |
| 20260510214236 | 48 | 261 | 0.9 | 7.0 | 0.00 | 0.00 | 0.00 | 63 | 1013.6 |
| 20260510212733 | 48 | 266 | 0.0 | 2.6 | 0.00 | 0.00 | 0.00 | 63 | 1013.9 |
| 20260510211233 | 49 | 266 | 0.0 | 1.7 | 0.00 | 0.00 | 0.00 | 64 | 1014.1 |
| 20260510205734 | 49 | 266 | 0.0 | 3.5 | 0.00 | 0.00 | 0.00 | 62 | 1014.1 |
| 20260510204234 | 49 | 261 | 0.0 | 1.7 | 0.00 | 0.00 | 0.00 | 63 | 1014.3 |
| 20260510202733 | 49 | 263 | 0.0 | 5.2 | 0.00 | 0.00 | 0.00 | 60 | 1014.5 |
| 20260510201233 | 49 | 121 | 0.0 | 0.0 | 0.00 | 0.00 | 0.00 | 61 | 1014.4 |
| 20260510195733 | 50 | 121 | 0.0 | 0.0 | 0.00 | 0.00 | 0.00 | 60 | 1014.6 |
| 20260510194233 | 50 | 121 | 0.0 | 0.0 | 0.00 | 0.00 | 0.00 | 59 | 1014.5 |
| 20260510192731 | 50 | 121 | 0.0 | 0.9 | 0.00 | 0.00 | 0.00 | 58 | 1014.7 |
| 20260510191229 | 51 | 121 | 0.0 | 0.0 | 0.00 | 0.00 | 0.00 | 58 | 1014.6 |
| 20260510185729 | 51 | 121 | 0.0 | 1.7 | 0.00 | 0.00 | 0.00 | 56 | 1014.7 |
| 20260510184229 | 52 | 121 | 0.0 | 2.6 | 0.00 | 0.01 | 0.00 | 54 | 1014.8 |
| 20260510182729 | 53 | 82 | 0.0 | 0.0 | 0.00 | 0.01 | 0.00 | 52 | 1015.0 |
| 20260510181229 | 53 | 82 | 0.0 | 1.7 | 0.00 | 0.01 | 0.00 | 52 | 1015.2 |
| 20260510175728 | 54 | 101 | 0.0 | 0.0 | 0.00 | 0.02 | 0.00 | 50 | 1015.3 |
| 20260510174227 | 53 | 101 | 0.0 | 0.9 | 0.00 | 0.03 | 0.00 | 53 | 1015.6 |
| 20260510172727 | 53 | 103 | 0.0 | 1.7 | 0.00 | 0.04 | 0.00 | 53 | 1015.8 |
| 20260510171227 | 52 | 92 | 0.0 | 2.6 | 0.00 | 0.04 | 0.00 | 53 | 1015.9 |
| 20260510165725 | 53 | 46 | 0.0 | 4.3 | 0.00 | 0.04 | 0.00 | 51 | 1016.0 |
| 20260510164223 | 54 | 130 | 0.0 | 1.7 | 0.00 | 0.04 | 0.00 | 52 | 1016.2 |
| 20260510162722 | 53 | 130 | 0.0 | 5.2 | 0.00 | 0.04 | 0.00 | 51 | 1016.4 |
| 20260510161223 | 54 | 56 | 0.0 | 2.6 | 0.00 | 0.04 | 0.00 | 50 | 1016.6 |
| 20260510155723 | 54 | 136 | 0.9 | 4.3 | 0.00 | 0.04 | 0.00 | 51 | 1016.8 |
| 20260510154223 | 56 | 165 | 0.0 | 3.5 | 0.00 | 0.04 | 0.00 | 50 | 1017.0 |
| 20260510152721 | 53 | 165 | 0.0 | 3.5 | 0.00 | 0.04 | 0.00 | 52 | 1017.1 |
| 20260510151220 | 54 | 153 | 0.0 | 1.7 | 0.00 | 0.04 | 0.00 | 51 | 1017.3 |
| 20260510145718 | 54 | 138 | 0.0 | 2.6 | 0.00 | 0.04 | 0.00 | 50 | 1017.5 |
| 20260510144216 | 53 | 146 | 0.0 | 7.0 | 0.00 | 0.04 | 0.00 | 51 | 1017.7 |
| 20260510142716 | 55 | 125 | 0.9 | 7.0 | 0.00 | 0.04 | 0.00 | 50 | 1017.8 |
| 20260510141216 | 55 | 135 | 0.9 | 6.1 | 0.00 | 0.04 | 0.00 | 51 | 1018.1 |
| 20260510135715 | 55 | 254 | 0.9 | 7.0 | 0.00 | 0.04 | 0.00 | 50 | 1018.1 |
| 20260510134212 | 57 | 25 | 0.9 | 3.5 | 0.00 | 0.04 | 0.00 | 47 | 1018.3 |
| 20260510132713 | 55 | 167 | 0.9 | 4.3 | 0.00 | 0.04 | 0.00 | 51 | 1018.5 |
| 20260510131212 | 56 | 118 | 0.9 | 5.2 | 0.00 | 0.04 | 0.00 | 49 | 1018.6 |
| 20260510125711 | 56 | 144 | 0.9 | 6.1 | 0.00 | 0.04 | 0.00 | 52 | 1018.7 |
| 20260510124210 | 56 | 171 | 0.9 | 5.2 | 0.00 | 0.04 | 0.00 | 50 | 1018.9 |
| 20260510122716 | 55 | 0 | 0.9 | 7.8 | 0.00 | 0.04 | 0.00 | 50 | 1019.1 |
| 20260510121210 | 56 | 201 | 0.9 | 6.1 | 0.00 | 0.04 | 0.00 | 51 | 1019.1 |
| 20260510115708 | 56 | 51 | 0.9 | 4.3 | 0.00 | 0.04 | 0.00 | 54 | 1019.4 |
| 20260510114206 | 54 | 147 | 0.0 | 7.8 | 0.00 | 0.04 | 0.00 | 56 | 1019.4 |
| 20260510112706 | 54 | 164 | 0.9 | 6.1 | 0.00 | 0.04 | 0.00 | 56 | 1019.6 |
| 20260510111206 | 54 | 73 | 0.9 | 7.0 | 0.00 | 0.04 | 0.00 | 57 | 1019.8 |
| 20260510105706 | 53 | 5 | 0.9 | 6.1 | 0.00 | 0.04 | 0.00 | 57 | 1020.0 |
| 20260510104205 | 54 | 128 | 0.9 | 8.7 | 0.00 | 0.04 | 0.00 | 55 | 1020.2 |
| 20260510102706 | 54 | 355 | 0.9 | 7.0 | 0.00 | 0.04 | 0.00 | 61 | 1020.4 |
| 20260510101205 | 54 | 349 | 0.9 | 8.7 | 0.00 | 0.04 | 0.00 | 62 | 1020.5 |
| 20260510095703 | 51 | 117 | 0.9 | 7.0 | 0.00 | 0.04 | 0.00 | 65 | 1020.7 |
| 20260510094203 | 51 | 134 | 0.9 | 7.0 | 0.00 | 0.04 | 0.00 | 67 | 1020.9 |
| 20260510092704 | 50 | 141 | 0.9 | 7.0 | 0.00 | 0.04 | 0.00 | 69 | 1021.0 |
| 20260510091200 | 51 | 115 | 0.9 | 7.0 | 0.00 | 0.04 | 0.00 | 66 | 1021.0 |
| 20260510085659 | 50 | 76 | 0.9 | 7.0 | 0.00 | 0.04 | 0.00 | 68 | 1021.1 |
| 20260510084159 | 50 | 165 | 1.7 | 7.8 | 0.00 | 0.04 | 0.00 | 67 | 1021.2 |
| 20260510082659 | 50 | 146 | 0.9 | 6.1 | 0.00 | 0.04 | 0.00 | 70 | 1021.2 |
| 20260510081200 | 47 | 108 | 1.7 | 7.8 | 0.00 | 0.04 | 0.00 | 73 | 1021.2 |
| 20260510075657 | 48 | 152 | 0.9 | 7.0 | 0.00 | 0.04 | 0.00 | 74 | 1021.2 |
| 20260510074157 | 48 | 44 | 0.9 | 5.2 | 0.00 | 0.04 | 0.00 | 78 | 1021.2 |
| 20260510072657 | 47 | 150 | 0.9 | 5.2 | 0.00 | 0.04 | 0.00 | 78 | 1021.3 |
| 20260510071157 | 46 | 151 | 0.9 | 3.5 | 0.00 | 0.04 | 0.00 | 78 | 1021.2 |
| 20260510065657 | 47 | 225 | 0.0 | 6.1 | 0.00 | 0.04 | 0.00 | 79 | 1021.2 |
| 20260510064156 | 46 | 161 | 0.9 | 7.8 | 0.00 | 0.04 | 0.00 | 81 | 1021.3 |
| 20260510062656 | 45 | 5 | 0.9 | 5.2 | 0.00 | 0.04 | 0.00 | 83 | 1021.2 |
| 20260510061155 | 44 | 156 | 0.0 | 3.5 | 0.00 | 0.04 | 0.00 | 86 | 1021.2 |
| 20260510055653 | 43 | 141 | 0.0 | 3.5 | 0.00 | 0.04 | 0.00 | 86 | 1021.2 |
| 20260510054153 | 43 | 290 | 0.0 | 1.7 | 0.00 | 0.04 | 0.00 | 87 | 1021.1 |
| 20260510052653 | 43 | 134 | 0.0 | 3.5 | 0.00 | 0.05 | 0.00 | 88 | 1021.1 |
| 20260510051152 | 42 | 109 | 0.0 | 2.6 | 0.00 | 0.05 | 0.00 | 88 | 1021.2 |
| 20260510045652 | 43 | 98 | 0.0 | 3.5 | 0.00 | 0.05 | 0.00 | 88 | 1021.2 |
| 20260510044153 | 42 | 32 | 0.0 | 4.3 | 0.00 | 0.06 | 0.00 | 88 | 1021.3 |
| 20260510042652 | 43 | 138 | 0.0 | 2.6 | 0.00 | 0.06 | 0.00 | 89 | 1021.3 |
| 20260510041153 | 43 | 123 | 0.0 | 3.5 | 0.00 | 0.06 | 0.00 | 89 | 1021.3 |
| 20260510035653 | 42 | 42 | 0.0 | 1.7 | 0.00 | 0.06 | 0.00 | 89 | 1021.4 |
| 20260510034152 | 43 | 130 | 0.0 | 1.7 | 0.00 | 0.06 | 0.00 | 88 | 1021.3 |
| 20260510032652 | 43 | 133 | 0.0 | 3.5 | 0.00 | 0.06 | 0.00 | 88 | 1021.5 |
| 20260510031152 | 43 | 178 | 0.0 | 2.6 | 0.00 | 0.06 | 0.00 | 88 | 1021.7 |
| 20260510025652 | 44 | 223 | 0.0 | 2.6 | 0.00 | 0.06 | 0.00 | 88 | 1021.7 |
| 20260510024152 | 44 | 192 | 0.0 | 5.2 | 0.00 | 0.06 | 0.00 | 88 | 1021.7 |
| 20260510022652 | 44 | 135 | 0.0 | 4.3 | 0.00 | 0.06 | 0.00 | 88 | 1021.6 |
| 20260510021151 | 44 | 146 | 0.0 | 1.7 | 0.00 | 0.06 | 0.00 | 89 | 1021.7 |
| 20260510015650 | 44 | 128 | 0.0 | 2.6 | 0.00 | 0.06 | 0.00 | 89 | 1021.6 |
| 20260510014150 | 44 | 333 | 0.0 | 2.6 | 0.00 | 0.06 | 0.00 | 89 | 1021.5 |
| 20260510012650 | 44 | 32 | 0.0 | 3.5 | 0.00 | 0.06 | 0.00 | 89 | 1021.6 |
| 20260510011148 | 44 | 132 | 0.0 | 4.3 | 0.00 | 0.06 | 0.00 | 89 | 1021.6 |
| 20260510005648 | 44 | 104 | 0.0 | 3.5 | 0.00 | 0.06 | 0.00 | 89 | 1021.6 |
| 20260510004148 | 44 | 184 | 0.0 | 7.8 | 0.00 | 0.06 | 0.00 | 89 | 1021.6 |
| 20260510002646 | 44 | 205 | 0.0 | 1.7 | 0.00 | 0.06 | 0.00 | 89 | 1021.7 |
| 20260510001146 | 44 | 134 | 0.0 | 7.0 | 0.00 | 0.06 | 0.00 | 89 | 1021.8 |
| 20260509235645 | 44 | 118 | 0.0 | 1.7 | 0.00 | 0.06 | 0.00 | 90 | 1021.8 |